Time;durP1;ratioP1;P1;durP2;ratioP2;P2;SDS_P1;SDS_P2;PMS_P1;PMS_P2;Temp;Humidity;BMP_temperature;BMP_pressure;BME280_temperature;BME280_humidity;BME280_pressure;Samples;Min_cycle;Max_cycle;Signal;HPM_P1;HPM_P2
2023/10/23 00:01:35;;;;;;;1.10;1.00;;;7.40;99.90;;;;;;5074807;28;20054;-70
2023/10/23 00:04:01;;;;;;;1.80;1.65;;;7.20;99.90;;;;;;5075385;28;20365;-70
2023/10/23 00:06:27;;;;;;;0.98;0.93;;;7.20;99.90;;;;;;5075021;28;20131;-70
2023/10/23 00:08:52;;;;;;;10.18;3.13;;;7.90;99.90;;;;;;5075167;28;20479;-70
2023/10/23 00:11:22;;;;;;;1.10;1.00;;;7.20;99.90;;;;;;5074828;28;20037;-71
2023/10/23 00:13:48;;;;;;;1.10;1.00;;;7.10;99.90;;;;;;5074531;28;20041;-70
2023/10/23 00:16:13;;;;;;;0.90;0.90;;;7.10;99.90;;;;;;5074180;28;20116;-70
2023/10/23 00:18:42;;;;;;;1.17;1.08;;;7.10;99.90;;;;;;5074383;28;20073;-71
2023/10/23 00:21:08;;;;;;;1.10;1.00;;;7.10;99.90;;;;;;5074524;28;20036;-70
2023/10/23 00:23:34;;;;;;;1.10;1.00;;;7.70;99.90;;;;;;5074340;28;20047;-70
2023/10/23 00:25:59;;;;;;;1.10;1.00;;;7.90;99.90;;;;;;5074057;28;20361;-70
2023/10/23 00:28:25;;;;;;;1.10;1.00;;;7.10;99.90;;;;;;5074346;28;20060;-71
2023/10/23 00:30:50;;;;;;;1.85;1.75;;;7.10;99.90;;;;;;5073625;28;20362;-70
2023/10/23 00:33:16;;;;;;;1.00;0.95;;;7.00;99.90;;;;;;5073931;28;20383;-70
2023/10/23 00:35:41;;;;;;;1.00;0.95;;;7.00;99.90;;;;;;5074091;28;20464;-71
2023/10/23 00:38:08;;;;;;;1.10;1.00;;;7.00;99.90;;;;;;5074053;28;20041;-70
2023/10/23 00:40:33;;;;;;;1.17;1.08;;;6.90;99.90;;;;;;5074063;28;20372;-70
2023/10/23 00:43:11;;;;;;;1.17;1.08;;;6.90;99.90;;;;;;5074083;28;20041;-70
2023/10/23 00:45:42;;;;;;;0.90;0.90;;;6.90;99.90;;;;;;5073910;28;20115;-70
2023/10/23 00:48:08;;;;;;;0.95;0.95;;;6.90;99.90;;;;;;5074015;28;20040;-71
2023/10/23 00:50:34;;;;;;;1.00;0.93;;;6.90;99.90;;;;;;5073807;28;20386;-70
2023/10/23 00:52:59;;;;;;;1.10;1.00;;;6.90;99.90;;;;;;5073881;28;20384;-70
2023/10/23 00:55:25;;;;;;;1.10;1.00;;;7.00;99.90;;;;;;5073814;28;20055;-70
2023/10/23 00:57:51;;;;;;;1.10;1.00;;;6.90;99.90;;;;;;5073831;28;20078;-71
2023/10/23 01:00:17;;;;;;;1.13;1.02;;;6.80;99.90;;;;;;5073692;28;20349;-70
2023/10/23 01:02:42;;;;;;;1.15;1.05;;;6.80;99.90;;;;;;5072582;28;20080;-70
2023/10/23 01:05:08;;;;;;;0.90;0.90;;;6.80;99.90;;;;;;5073576;28;20087;-70
2023/10/23 01:07:33;;;;;;;1.20;1.10;;;6.80;99.90;;;;;;5073596;28;20056;-71
2023/10/23 01:09:59;;;;;;;1.10;1.00;;;6.80;99.90;;;;;;5073843;28;20041;-70
2023/10/23 01:12:25;;;;;;;1.15;1.05;;;6.80;99.90;;;;;;5073466;28;20453;-70
2023/10/23 01:14:50;;;;;;;1.10;1.00;;;7.20;99.90;;;;;;5073532;28;20051;-70
2023/10/23 01:17:16;;;;;;;1.10;1.00;;;6.70;99.90;;;;;;5073563;28;20037;-70
2023/10/23 01:19:41;;;;;;;0.98;0.93;;;6.70;99.90;;;;;;5072391;28;20123;-70
2023/10/23 01:22:07;;;;;;;1.10;1.00;;;6.60;99.90;;;;;;5073456;28;20083;-70
2023/10/23 01:24:35;;;;;;;1.13;1.02;;;6.60;99.90;;;;;;5073608;28;20037;-70
2023/10/23 01:27:00;;;;;;;1.10;1.00;;;6.60;99.90;;;;;;5073202;28;20040;-71
2023/10/23 01:29:26;;;;;;;1.10;1.00;;;7.00;99.90;;;;;;5073195;28;20162;-70
2023/10/23 01:31:52;;;;;;;1.10;1.00;;;6.50;99.90;;;;;;5073491;28;20029;-70
2023/10/23 01:34:17;;;;;;;1.40;1.30;;;6.50;99.90;;;;;;5073462;28;20494;-70
2023/10/23 01:36:43;;;;;;;1.13;1.02;;;6.50;99.90;;;;;;5073092;28;20052;-70
2023/10/23 01:39:08;;;;;;;1.15;1.05;;;6.50;99.90;;;;;;5073299;28;20072;-70
2023/10/23 01:41:34;;;;;;;1.20;1.10;;;6.50;99.90;;;;;;5074343;28;20472;-70
2023/10/23 01:43:59;;;;;;;1.17;1.08;;;6.40;99.90;;;;;;5077347;28;20044;-70
2023/10/23 01:46:25;;;;;;;0.90;0.90;;;6.50;99.90;;;;;;5077515;28;20040;-70
2023/10/23 01:48:51;;;;;;;1.20;1.10;;;6.40;99.90;;;;;;5077270;28;20483;-70
2023/10/23 01:51:16;;;;;;;1.20;1.10;;;6.40;99.90;;;;;;5077327;28;20460;-70
2023/10/23 01:53:42;;;;;;;1.20;1.10;;;6.40;99.90;;;;;;5076950;28;20037;-70
2023/10/23 01:56:08;;;;;;;1.20;1.10;;;6.40;99.90;;;;;;5077362;28;20056;-70
2023/10/23 01:58:34;;;;;;;1.15;1.05;;;6.90;99.90;;;;;;5077069;28;20044;-70
2023/10/23 02:00:59;;;;;;;1.20;1.10;;;6.40;99.90;;;;;;5077101;28;20402;-70
2023/10/23 02:03:26;;;;;;;1.13;1.02;;;6.40;99.90;;;;;;5077130;28;20041;-70
2023/10/23 02:05:51;;;;;;;1.13;1.02;;;6.30;99.90;;;;;;5075810;28;20448;-70
2023/10/23 02:08:21;;;;;;;1.20;1.10;;;6.30;99.90;;;;;;5076941;28;20076;-70
2023/10/23 02:10:46;;;;;;;1.30;1.20;;;6.30;99.90;;;;;;5076708;28;20036;-70
2023/10/23 02:13:12;;;;;;;1.20;1.10;;;6.30;99.90;;;;;;5076780;28;20368;-70
2023/10/23 02:15:37;;;;;;;1.10;1.00;;;6.30;99.90;;;;;;5076807;28;20036;-70
2023/10/23 02:18:03;;;;;;;1.27;1.17;;;6.30;99.90;;;;;;5076828;28;20061;-70
2023/10/23 02:20:29;;;;;;;1.20;1.10;;;6.20;99.90;;;;;;5076630;28;20083;-70
2023/10/23 02:22:54;;;;;;;1.10;1.00;;;6.20;99.90;;;;;;5076469;28;20098;-70
2023/10/23 02:25:20;;;;;;;1.25;1.15;;;6.20;99.90;;;;;;5076629;28;20194;-70
2023/10/23 02:27:45;;;;;;;1.10;1.00;;;6.10;99.90;;;;;;5076556;28;20109;-70
2023/10/23 02:30:11;;;;;;;1.20;1.10;;;6.10;99.90;;;;;;5076478;28;20036;-70
2023/10/23 02:32:37;;;;;;;1.27;1.17;;;6.10;99.90;;;;;;5076499;28;20047;-70
2023/10/23 02:35:03;;;;;;;1.30;1.20;;;6.10;99.90;;;;;;5076490;28;20034;-70
2023/10/23 02:37:29;;;;;;;1.20;1.10;;;6.10;99.90;;;;;;5076693;28;20043;-70
2023/10/23 02:39:54;;;;;;;1.20;1.10;;;6.00;99.90;;;;;;5076563;28;20124;-70
2023/10/23 02:42:20;;;;;;;1.25;1.15;;;6.00;99.90;;;;;;5076360;28;20052;-70
2023/10/23 02:44:45;;;;;;;1.17;1.08;;;6.50;99.90;;;;;;5076224;28;20076;-70
2023/10/23 02:47:11;;;;;;;1.10;1.00;;;6.00;99.90;;;;;;5076228;28;20083;-70
2023/10/23 02:49:37;;;;;;;1.20;1.10;;;5.90;99.90;;;;;;5075780;28;20139;-70
2023/10/23 02:52:03;;;;;;;1.27;1.17;;;6.30;99.90;;;;;;5076484;28;20120;-70
2023/10/23 02:54:29;;;;;;;1.30;1.20;;;5.90;99.90;;;;;;5075391;28;20123;-70
2023/10/23 02:56:55;;;;;;;1.17;1.08;;;5.90;99.90;;;;;;5076244;28;20123;-70
2023/10/23 02:59:21;;;;;;;1.20;1.10;;;5.90;99.90;;;;;;5075757;28;20039;-70
2023/10/23 03:01:46;;;;;;;1.30;1.20;;;5.90;99.90;;;;;;5076487;28;20119;-70
2023/10/23 03:04:12;;;;;;;2.75;1.98;;;5.90;99.90;;;;;;5075776;28;20119;-70
2023/10/23 03:06:38;;;;;;;1.23;1.13;;;5.80;99.90;;;;;;5075688;28;20442;-70
2023/10/23 03:09:04;;;;;;;1.08;1.00;;;5.80;99.90;;;;;;5075909;28;20078;-70
2023/10/23 03:11:31;;;;;;;1.20;1.10;;;5.90;99.90;;;;;;5075802;28;20047;-70
2023/10/23 03:13:56;;;;;;;1.20;1.10;;;5.80;99.90;;;;;;5075811;28;20045;-70
2023/10/23 03:16:24;;;;;;;1.15;1.05;;;5.80;99.90;;;;;;5075420;28;20044;-70
2023/10/23 03:18:50;;;;;;;1.38;1.27;;;5.70;99.90;;;;;;5075802;28;20478;-70
2023/10/23 03:21:16;;;;;;;1.20;1.10;;;5.70;99.90;;;;;;5075624;28;20127;-70
2023/10/23 03:23:41;;;;;;;1.20;1.10;;;5.70;99.90;;;;;;5075552;28;20067;-70
2023/10/23 03:26:07;;;;;;;1.25;1.15;;;5.70;99.90;;;;;;5075548;28;20076;-70
2023/10/23 03:28:32;;;;;;;1.15;1.05;;;5.70;99.90;;;;;;5075137;28;20472;-70
2023/10/23 03:31:01;;;;;;;1.25;1.15;;;5.70;99.90;;;;;;5075342;28;20090;-70
2023/10/23 03:33:26;;;;;;;1.20;1.10;;;5.80;99.90;;;;;;5075446;28;20048;-70
2023/10/23 03:35:52;;;;;;;1.10;1.00;;;5.70;99.90;;;;;;5075311;28;20521;-70
2023/10/23 03:38:17;;;;;;;1.15;1.05;;;5.70;99.90;;;;;;5075313;28;20040;-70
2023/10/23 03:40:57;;;;;;;1.17;1.08;;;5.70;99.90;;;;;;5075196;28;20039;-70
2023/10/23 03:43:23;;;;;;;1.20;1.10;;;5.70;99.90;;;;;;5075194;28;20036;-70
2023/10/23 03:45:49;;;;;;;1.05;0.98;;;5.60;99.90;;;;;;5075139;28;20112;-70
2023/10/23 03:48:14;;;;;;;1.10;1.00;;;5.60;99.90;;;;;;5075044;28;20049;-70
2023/10/23 03:50:40;;;;;;;1.15;1.05;;;5.60;99.90;;;;;;5074990;28;20083;-69
2023/10/23 03:53:05;;;;;;;1.13;1.02;;;5.60;99.90;;;;;;5074808;28;20044;-70
2023/10/23 03:55:36;;;;;;;1.10;1.00;;;5.60;99.90;;;;;;5074953;28;20037;-70
2023/10/23 03:58:01;;;;;;;1.15;1.05;;;6.70;99.90;;;;;;5074893;28;20041;-70
2023/10/23 04:00:27;;;;;;;1.10;1.00;;;5.70;99.90;;;;;;5074770;28;20453;-70
2023/10/23 04:02:52;;;;;;;1.15;1.05;;;5.70;99.90;;;;;;5074817;28;20048;-70
2023/10/23 04:05:18;;;;;;;1.13;1.02;;;5.70;99.90;;;;;;5074692;28;20383;-70
2023/10/23 04:07:44;;;;;;;1.08;1.00;;;6.50;99.90;;;;;;5074712;28;20092;-70
2023/10/23 04:10:11;;;;;;;1.13;1.02;;;5.70;99.90;;;;;;5074497;28;20066;-70
2023/10/23 04:12:36;;;;;;;0.98;0.93;;;5.70;99.90;;;;;;5074523;28;20036;-70
2023/10/23 04:15:03;;;;;;;1.10;1.00;;;5.70;99.90;;;;;;5074461;28;20447;-70
2023/10/23 04:17:28;;;;;;;1.30;1.20;;;5.70;99.90;;;;;;5074423;28;20045;-71
2023/10/23 04:19:54;;;;;;;1.10;1.00;;;5.70;99.90;;;;;;5074508;28;20091;-70
2023/10/23 04:22:19;;;;;;;1.08;1.00;;;5.80;99.90;;;;;;5073434;28;20040;-71
2023/10/23 04:24:45;;;;;;;1.13;1.02;;;5.80;99.90;;;;;;5074071;28;20380;-71
2023/10/23 04:27:10;;;;;;;1.30;1.20;;;5.80;99.90;;;;;;5073262;28;20037;-70
2023/10/23 04:29:36;;;;;;;0.80;0.80;;;5.80;99.90;;;;;;5074229;28;20461;-71
2023/10/23 04:32:02;;;;;;;1.30;1.20;;;5.70;99.90;;;;;;5074623;28;20075;-70
2023/10/23 04:34:28;;;;;;;1.17;1.08;;;5.70;99.90;;;;;;5074016;28;20464;-71
2023/10/23 04:36:53;;;;;;;1.13;1.02;;;5.60;99.90;;;;;;5074202;28;20047;-70
2023/10/23 04:39:19;;;;;;;1.10;1.00;;;5.60;99.90;;;;;;5074142;28;20049;-70
2023/10/23 04:41:45;;;;;;;0.93;0.93;;;5.60;99.90;;;;;;5074063;28;20041;-72
2023/10/23 04:44:10;;;;;;;0.88;0.88;;;5.60;99.90;;;;;;5074064;28;20072;-70
2023/10/23 04:46:36;;;;;;;0.90;0.90;;;5.90;99.90;;;;;;5073980;28;20487;-70
2023/10/23 04:49:01;;;;;;;0.88;0.88;;;5.50;99.90;;;;;;5073969;28;20075;-71
2023/10/23 04:51:27;;;;;;;0.82;0.82;;;5.90;99.90;;;;;;5073915;28;20113;-71
2023/10/23 04:53:52;;;;;;;0.90;0.90;;;5.50;99.90;;;;;;5072460;28;20040;-75
2023/10/23 04:56:18;;;;;;;0.90;0.90;;;5.50;99.90;;;;;;5073929;28;20044;-69
2023/10/23 04:58:44;;;;;;;1.05;1.00;;;5.50;99.90;;;;;;5073806;28;20044;-70
2023/10/23 05:01:16;;;;;;;1.10;1.00;;;5.40;99.90;;;;;;5071258;28;20033;-69
2023/10/23 05:03:42;;;;;;;1.08;0.98;;;5.40;99.90;;;;;;5073590;28;20041;-69
2023/10/23 05:06:08;;;;;;;0.90;0.90;;;6.30;99.90;;;;;;5073747;28;20044;-69
2023/10/23 05:08:33;;;;;;;1.10;1.00;;;5.40;99.90;;;;;;5072215;28;20105;-69
2023/10/23 05:11:08;;;;;;;1.10;1.00;;;6.40;99.90;;;;;;5076708;28;20400;-72
2023/10/23 05:13:34;;;;;;;0.93;0.90;;;5.40;99.90;;;;;;5061162;28;20048;-70
2023/10/23 05:16:04;;;;;;;0.90;0.90;;;5.50;99.90;;;;;;5072799;28;20060;-73
2023/10/23 05:18:31;;;;;;;0.90;0.90;;;5.40;99.90;;;;;;5073497;28;20491;-70
2023/10/23 05:20:57;;;;;;;0.90;0.90;;;5.40;99.90;;;;;;5072065;28;20036;-72
2023/10/23 05:23:23;;;;;;;1.10;1.00;;;5.50;99.90;;;;;;5056955;28;20059;-72
2023/10/23 05:25:48;;;;;;;1.08;1.00;;;5.50;99.90;;;;;;5072852;28;20036;-70
2023/10/23 05:28:14;;;;;;;0.90;0.90;;;5.50;99.90;;;;;;5072158;28;20368;-76
2023/10/23 05:30:40;;;;;;;0.98;0.98;;;5.50;99.90;;;;;;5072983;28;20033;-72
2023/10/23 05:33:05;;;;;;;1.10;1.00;;;5.50;99.90;;;;;;5079286;28;20075;-71
2023/10/23 05:35:31;;;;;;;0.88;0.88;;;5.50;99.90;;;;;;5072899;28;20123;-71
2023/10/23 05:37:56;;;;;;;1.10;1.00;;;5.50;99.90;;;;;;5072583;28;20036;-72
2023/10/23 05:40:22;;;;;;;1.50;1.45;;;5.50;99.90;;;;;;5072946;28;20079;-70
2023/10/23 05:42:47;;;;;;;0.90;0.90;;;5.50;99.90;;;;;;5073359;28;20040;-70
2023/10/23 05:45:13;;;;;;;1.10;1.00;;;5.50;99.90;;;;;;5073336;28;20042;-72
2023/10/23 05:47:39;;;;;;;1.00;0.95;;;5.50;99.90;;;;;;5072011;28;20047;-72
2023/10/23 05:50:05;;;;;;;1.08;0.98;;;5.50;99.90;;;;;;5073156;28;20036;-75
2023/10/23 05:52:30;;;;;;;1.10;1.00;;;5.40;99.90;;;;;;5072593;28;20097;-73
2023/10/23 05:54:56;;;;;;;0.93;0.93;;;5.40;99.90;;;;;;5073083;28;20036;-71
2023/10/23 05:57:22;;;;;;;0.90;0.90;;;5.40;99.90;;;;;;5073229;28;20527;-78
2023/10/23 05:59:47;;;;;;;1.00;0.93;;;5.40;99.90;;;;;;5073111;28;20391;-76
2023/10/23 06:02:13;;;;;;;0.93;0.90;;;5.40;99.90;;;;;;5073338;28;20043;-77
2023/10/23 06:04:42;;;;;;;0.90;0.90;;;5.40;99.90;;;;;;5073484;28;20557;-78
2023/10/23 06:07:08;;;;;;;0.90;0.90;;;5.40;99.90;;;;;;5072042;28;20033;-71
2023/10/23 06:09:33;;;;;;;0.90;0.90;;;5.40;99.90;;;;;;5072765;28;20503;-71
2023/10/23 06:11:59;;;;;;;0.90;0.90;;;5.40;99.90;;;;;;5073046;28;20046;-73
2023/10/23 06:14:24;;;;;;;0.80;0.80;;;5.40;99.90;;;;;;5073242;28;20040;-71
2023/10/23 06:16:50;;;;;;;0.90;0.90;;;5.40;99.90;;;;;;5073081;28;20119;-71
2023/10/23 06:19:17;;;;;;;0.90;0.90;;;5.40;99.90;;;;;;5073135;28;20127;-73
2023/10/23 06:21:42;;;;;;;0.90;0.90;;;5.40;99.90;;;;;;5072091;28;20041;-70
2023/10/23 06:24:08;;;;;;;0.80;0.80;;;5.40;99.90;;;;;;5071630;28;20448;-71
2023/10/23 06:26:34;;;;;;;0.85;0.85;;;5.40;99.90;;;;;;5071642;28;20044;-70
2023/10/23 06:28:59;;;;;;;0.90;0.90;;;5.40;99.90;;;;;;5074215;28;20037;-70
2023/10/23 06:31:25;;;;;;;1.02;1.00;;;5.40;99.90;;;;;;5076538;28;20062;-72
2023/10/23 06:33:52;;;;;;;0.90;0.88;;;5.40;99.90;;;;;;5076228;28;20044;-73
2023/10/23 06:36:18;;;;;;;0.90;0.90;;;5.40;99.90;;;;;;5075268;28;20045;-70
2023/10/23 06:38:43;;;;;;;0.93;0.93;;;5.50;99.90;;;;;;5076303;28;20465;-76
2023/10/23 06:41:09;;;;;;;0.93;0.90;;;5.50;99.90;;;;;;5075873;28;20101;-77
2023/10/23 06:43:38;;;;;;;0.93;0.93;;;5.50;99.90;;;;;;5076037;28;20044;-76
2023/10/23 06:46:03;;;;;;;1.73;1.63;;;6.20;99.90;;;;;;5076221;28;20071;-73
2023/10/23 06:48:30;;;;;;;0.85;0.85;;;5.60;99.90;;;;;;5076293;28;20045;-79
2023/10/23 06:50:56;;;;;;;0.88;0.88;;;5.70;99.90;;;;;;5074853;28;20028;-72
2023/10/23 06:53:21;;;;;;;0.80;0.80;;;5.70;99.90;;;;;;5076108;28;20373;-71
2023/10/23 06:55:54;;;;;;;0.80;0.80;;;5.80;99.90;;;;;;5076040;28;20063;-72
2023/10/23 06:58:20;;;;;;;0.80;0.80;;;5.90;99.90;;;;;;5075933;28;20484;-72
2023/10/23 07:00:46;;;;;;;0.70;0.70;;;6.00;99.90;;;;;;5075060;28;20039;-70
2023/10/23 07:03:13;;;;;;;0.80;0.80;;;6.10;99.90;;;;;;5075902;28;20472;-70
2023/10/23 07:05:39;;;;;;;0.90;0.90;;;6.10;99.90;;;;;;5075912;28;20043;-70
2023/10/23 07:08:05;;;;;;;0.77;0.77;;;6.20;99.90;;;;;;5075652;28;20476;-70
2023/10/23 07:10:40;;;;;;;0.70;0.70;;;7.10;99.90;;;;;;5075699;28;20043;-70
2023/10/23 07:13:06;;;;;;;0.77;0.77;;;6.80;99.90;;;;;;5075527;28;20127;-73
2023/10/23 07:15:34;;;;;;;0.80;0.80;;;6.40;99.90;;;;;;5075854;28;20119;-74
2023/10/23 07:18:02;;;;;;;0.70;0.70;;;6.50;99.90;;;;;;5075866;28;20042;-70
2023/10/23 07:20:27;;;;;;;;;;;6.50;99.90;;;;;;5074934;28;20436;-70
2023/10/23 07:22:53;;;;;;;0.68;0.68;;;6.60;99.90;;;;;;5075570;28;19971;-72
2023/10/23 07:25:18;;;;;;;0.80;0.80;;;6.60;99.90;;;;;;5075711;28;20033;-71
2023/10/23 07:27:44;;;;;;;0.70;0.70;;;6.60;99.90;;;;;;5075593;28;20044;-74
2023/10/23 07:30:11;;;;;;;0.70;0.70;;;6.60;99.90;;;;;;5075313;28;20036;-70
2023/10/23 07:32:36;;;;;;;0.75;0.75;;;6.60;99.90;;;;;;5075017;28;20052;-73
2023/10/23 07:35:05;;;;;;;0.80;0.80;;;6.60;99.90;;;;;;5075287;28;20049;-75
2023/10/23 07:37:32;;;;;;;0.73;0.73;;;6.60;99.90;;;;;;5074934;28;20480;-70
2023/10/23 07:39:58;;;;;;;0.70;0.70;;;6.60;99.90;;;;;;5075407;28;20040;-72
2023/10/23 07:42:25;;;;;;;0.70;0.70;;;6.70;99.90;;;;;;5075228;28;20357;-71
2023/10/23 07:44:51;;;;;;;0.70;0.70;;;6.70;99.90;;;;;;5075198;28;20414;-71
2023/10/23 07:47:17;;;;;;;0.70;0.70;;;6.80;99.90;;;;;;5075131;28;20036;-72
2023/10/23 07:49:44;;;;;;;0.63;0.63;;;6.70;99.90;;;;;;5075007;28;20119;-73
2023/10/23 07:52:10;;;;;;;0.95;0.95;;;6.80;99.90;;;;;;5074963;28;20076;-73
2023/10/23 07:54:35;;;;;;;0.70;0.70;;;7.50;99.90;;;;;;5075030;28;20071;-76
2023/10/23 07:57:01;;;;;;;0.80;0.80;;;6.80;99.90;;;;;;5074745;28;20063;-75
2023/10/23 07:59:27;;;;;;;0.70;0.70;;;6.80;99.90;;;;;;5074779;28;20452;-74
2023/10/23 08:01:52;;;;;;;0.70;0.70;;;7.60;99.90;;;;;;5074772;28;20044;-75
2023/10/23 08:04:19;;;;;;;0.70;0.70;;;6.90;99.90;;;;;;5074832;28;20078;-70
2023/10/23 08:06:45;;;;;;;0.70;0.70;;;7.00;99.90;;;;;;5074889;28;20155;-72
2023/10/23 08:09:11;;;;;;;0.80;0.80;;;7.00;99.90;;;;;;5075040;28;20448;-71
2023/10/23 08:11:37;;;;;;;0.70;0.70;;;7.00;99.90;;;;;;5074622;28;20040;-70
2023/10/23 08:14:02;;;;;;;0.70;0.70;;;7.20;99.90;;;;;;5074680;28;20032;-71
2023/10/23 08:16:28;;;;;;;0.65;0.65;;;7.20;99.90;;;;;;5074728;28;20032;-72
2023/10/23 08:18:55;;;;;;;0.70;0.70;;;7.30;99.90;;;;;;5074221;28;20469;-73
2023/10/23 08:21:22;;;;;;;1.77;0.70;;;8.20;99.90;;;;;;5074119;28;20134;-74
2023/10/23 08:23:54;;;;;;;0.70;0.70;;;7.50;99.90;;;;;;5074402;28;20048;-72
2023/10/23 08:26:22;;;;;;;0.70;0.70;;;7.60;99.90;;;;;;5074478;28;20040;-71
2023/10/23 08:28:49;;;;;;;0.65;0.65;;;7.70;99.90;;;;;;5074352;28;20044;-72
2023/10/23 08:31:15;;;;;;;0.65;0.65;;;7.80;99.90;;;;;;5074095;28;20051;-73
2023/10/23 08:33:41;;;;;;;0.70;0.70;;;7.90;99.90;;;;;;5074208;28;20097;-71
2023/10/23 08:36:07;;;;;;;0.70;0.70;;;8.10;99.90;;;;;;5074420;28;20438;-71
2023/10/23 08:38:33;;;;;;;1.15;1.05;;;8.00;99.90;;;;;;5074191;28;20037;-70
2023/10/23 08:41:01;;;;;;;0.70;0.70;;;8.10;99.90;;;;;;5074141;28;20090;-71
2023/10/23 08:43:27;;;;;;;0.70;0.70;;;8.10;99.90;;;;;;5074201;28;20044;-76
2023/10/23 08:45:54;;;;;;;1.00;1.00;;;8.20;99.90;;;;;;5073743;28;20499;-72
2023/10/23 08:48:21;;;;;;;0.60;0.60;;;8.20;99.90;;;;;;5073953;28;20052;-74
2023/10/23 08:50:48;;;;;;;0.60;0.60;;;8.70;99.90;;;;;;5073053;28;20078;-73
2023/10/23 08:53:15;;;;;;;0.60;0.60;;;8.60;99.90;;;;;;5073679;28;20050;-73
2023/10/23 08:55:42;;;;;;;0.60;0.60;;;8.40;99.90;;;;;;5074237;28;20048;-76
2023/10/23 08:58:08;;;;;;;;;;;8.30;99.90;;;;;;5074149;28;20135;-71
2023/10/23 09:00:33;;;;;;;0.60;0.60;;;8.70;99.90;;;;;;5073833;28;20007;-78
2023/10/23 09:03:00;;;;;;;0.60;0.60;;;8.30;99.90;;;;;;5073841;28;20041;-74
2023/10/23 09:05:26;;;;;;;0.70;0.70;;;8.40;99.90;;;;;;5073756;28;20066;-73
2023/10/23 09:07:51;;;;;;;0.70;0.70;;;8.40;99.90;;;;;;5073693;28;20136;-75
2023/10/23 09:10:17;;;;;;;1.48;1.38;;;8.50;99.90;;;;;;5073707;28;20123;-74
2023/10/23 09:12:44;;;;;;;1.05;1.05;;;8.60;99.90;;;;;;5073780;28;20067;-74
2023/10/23 09:15:13;;;;;;;0.80;0.80;;;8.80;99.90;;;;;;5073674;28;20439;-77
2023/10/23 09:17:40;;;;;;;0.88;0.88;;;8.70;99.90;;;;;;5073309;28;20480;-74
2023/10/23 09:20:26;;;;;;;0.60;0.60;;;8.80;99.90;;;;;;5073656;28;20044;-72
2023/10/23 09:22:53;;;;;;;0.60;0.60;;;8.90;99.90;;;;;;5074064;28;20131;-74
2023/10/23 09:25:24;;;;;;;0.70;0.70;;;8.90;99.90;;;;;;5072722;28;20055;-75
2023/10/23 09:27:51;;;;;;;0.70;0.70;;;8.90;99.90;;;;;;5072325;28;20313;-78
2023/10/23 09:30:23;;;;;;;;;;;9.00;99.90;;;;;;5073617;28;20037;-73
2023/10/23 09:32:53;;;;;;;0.75;0.75;;;9.00;99.90;;;;;;5073577;28;20417;-75
2023/10/23 09:35:21;;;;;;;0.65;0.65;;;9.60;99.90;;;;;;5073520;28;20040;-79
2023/10/23 09:37:47;;;;;;;0.70;0.70;;;9.10;99.90;;;;;;5073206;28;20044;-79
2023/10/23 09:40:13;;;;;;;0.73;0.73;;;9.30;99.90;;;;;;5073402;28;20036;-78
2023/10/23 09:42:42;;;;;;;1.23;1.13;;;9.20;99.90;;;;;;5073441;28;20032;-78
2023/10/23 09:45:09;;;;;;;0.60;0.60;;;9.30;99.90;;;;;;5073075;28;20040;-75
2023/10/23 09:47:35;;;;;;;1.00;0.68;;;9.30;99.90;;;;;;5073644;28;20047;-77
2023/10/23 09:50:03;;;;;;;0.60;0.60;;;9.30;99.90;;;;;;5073323;28;20473;-75
2023/10/23 09:52:33;;;;;;;0.80;0.80;;;9.40;99.90;;;;;;5073658;28;20055;-77
2023/10/23 09:55:00;;;;;;;0.70;0.70;;;9.40;99.90;;;;;;5073235;28;20040;-77
2023/10/23 09:57:34;;;;;;;0.70;0.70;;;9.50;99.90;;;;;;5071964;28;20353;-73
2023/10/23 10:00:03;;;;;;;0.80;0.80;;;9.50;99.90;;;;;;5073671;28;20141;-77
2023/10/23 10:02:33;;;;;;;0.93;0.93;;;9.70;99.90;;;;;;5074514;28;20049;-78
2023/10/23 10:05:06;;;;;;;0.88;0.88;;;9.70;99.90;;;;;;5077103;28;20044;-80
2023/10/23 10:07:36;;;;;;;2.60;1.05;;;9.80;99.90;;;;;;5076634;28;20413;-76
2023/10/23 10:10:05;;;;;;;1.70;1.30;;;10.30;99.90;;;;;;5076931;28;20045;-78
2023/10/23 10:12:37;;;;;;;0.73;0.73;;;9.90;99.90;;;;;;5076955;28;20043;-82
2023/10/23 10:15:04;;;;;;;1.58;1.35;;;10.00;99.90;;;;;;5042980;28;20047;-75
2023/10/23 10:17:30;;;;;;;0.93;0.80;;;10.00;99.90;;;;;;5076724;28;20041;-76
2023/10/23 10:19:59;;;;;;;0.70;0.70;;;10.10;99.90;;;;;;5076603;28;20041;-72
2023/10/23 10:22:32;;;;;;;0.70;0.70;;;10.10;99.90;;;;;;5076749;28;20037;-78
2023/10/23 10:24:58;;;;;;;1.35;1.08;;;10.20;99.90;;;;;;5076678;28;20044;-80
2023/10/23 10:27:24;;;;;;;0.60;0.60;;;10.30;99.90;;;;;;5076578;28;20052;-74
2023/10/23 10:29:51;;;;;;;0.80;0.70;;;10.30;99.90;;;;;;5076798;28;20411;-73
2023/10/23 10:32:17;;;;;;;0.77;0.77;;;10.30;99.90;;;;;;5076982;28;20044;-74
2023/10/23 10:34:46;;;;;;;0.70;0.70;;;10.30;99.90;;;;;;5080816;28;20492;-76
2023/10/23 10:37:12;;;;;;;0.70;0.70;;;10.30;99.90;;;;;;5076343;28;20044;-75
2023/10/23 10:39:53;;;;;;;1.15;1.05;;;10.40;99.90;;;;;;5076858;28;20072;-72
2023/10/23 10:42:21;;;;;;;1.58;1.17;;;10.80;99.90;;;;;;5076494;28;20044;-74
2023/10/23 10:45:20;;;;;;;1.00;1.00;;;10.40;99.90;;;;;;5076047;28;20040;-75
2023/10/23 10:47:53;;;;;;;1.08;0.98;;;10.40;99.90;;;;;;5052955;28;20048;-79
2023/10/23 10:50:38;;;;;;;0.60;0.60;;;11.00;99.90;;;;;;5076235;28;20094;-73
2023/10/23 10:53:07;;;;;;;3.90;2.22;;;10.40;99.90;;;;;;5075939;28;20472;-77
2023/10/23 10:55:34;;;;;;;1.35;1.25;;;10.40;99.90;;;;;;5076169;28;20049;-75
2023/10/23 10:58:02;;;;;;;0.98;0.95;;;10.40;99.90;;;;;;5076069;28;20054;-75
2023/10/23 11:00:32;;;;;;;0.90;0.90;;;10.40;99.90;;;;;;5076072;28;20407;-73
2023/10/23 11:02:58;;;;;;;0.70;0.70;;;10.50;99.90;;;;;;5076028;28;20502;-75
2023/10/23 11:05:24;;;;;;;0.73;0.73;;;10.50;99.90;;;;;;5076213;28;20032;-73
2023/10/23 11:07:51;;;;;;;1.48;0.70;;;10.50;99.90;;;;;;5076059;28;20787;-70
2023/10/23 11:10:17;;;;;;;1.25;1.15;;;10.70;99.90;;;;;;5075820;28;20044;-75
2023/10/23 11:12:43;;;;;;;0.60;0.60;;;10.50;99.90;;;;;;5074487;28;20357;-75
2023/10/23 11:15:09;;;;;;;0.93;0.93;;;10.60;99.90;;;;;;5074834;28;20040;-74
2023/10/23 11:17:36;;;;;;;1.05;1.02;;;10.60;99.90;;;;;;5072598;28;20102;-75
2023/10/23 11:20:12;;;;;;;0.93;0.82;;;10.70;99.90;;;;;;5057357;28;20041;-74
2023/10/23 11:22:42;;;;;;;0.73;0.73;;;10.70;99.90;;;;;;5067726;28;20060;-72
2023/10/23 11:25:09;;;;;;;0.70;0.70;;;10.80;99.90;;;;;;5058874;28;20048;-71
2023/10/23 11:27:35;;;;;;;;;;;10.80;99.90;;;;;;5068417;28;20040;-75
2023/10/23 11:30:01;;;;;;;0.70;0.70;;;10.80;99.90;;;;;;5074268;28;19950;-74
2023/10/23 11:32:28;;;;;;;1.67;1.58;;;10.90;99.90;;;;;;5075090;28;20036;-75
2023/10/23 11:35:05;;;;;;;1.15;0.85;;;10.90;99.90;;;;;;5063829;28;20042;-78
2023/10/23 11:37:38;;;;;;;0.60;0.60;;;10.90;99.90;;;;;;5074462;28;20048;-72
2023/10/23 11:40:07;;;;;;;0.60;0.60;;;11.60;99.90;;;;;;5075333;28;20446;-72
2023/10/23 11:42:50;;;;;;;1.58;1.02;;;11.00;99.90;;;;;;5075619;28;20032;-75
2023/10/23 11:45:19;;;;;;;0.90;0.90;;;11.00;99.90;;;;;;5072189;28;20500;-73
2023/10/23 11:47:45;;;;;;;0.50;0.50;;;11.00;99.90;;;;;;5070653;28;20058;-72
2023/10/23 11:50:13;;;;;;;1.25;1.15;;;11.00;99.90;;;;;;5072230;28;20032;-73
2023/10/23 11:52:48;;;;;;;3.00;1.48;;;11.10;99.90;;;;;;5069813;28;20037;-74
2023/10/23 11:55:16;;;;;;;0.77;0.77;;;11.10;99.90;;;;;;5055654;28;20051;-74
2023/10/23 11:57:46;;;;;;;0.88;0.85;;;11.50;99.90;;;;;;5054783;28;20045;-75
2023/10/23 12:00:13;;;;;;;1.80;1.70;;;11.50;99.90;;;;;;5065589;28;20037;-73
2023/10/23 12:02:43;;;;;;;0.50;0.50;;;11.30;99.90;;;;;;5074791;28;20086;-74
2023/10/23 12:05:12;;;;;;;0.80;0.80;;;11.60;99.90;;;;;;5056744;28;20461;-72
2023/10/23 12:07:42;;;;;;;1.85;1.23;;;11.40;99.90;;;;;;5054890;28;20401;-75
2023/10/23 12:10:10;;;;;;;0.75;0.70;;;11.40;99.90;;;;;;5054569;28;20449;-72
2023/10/23 12:12:41;;;;;;;0.65;0.65;;;11.50;99.90;;;;;;5054581;28;20041;-73
2023/10/23 12:15:08;;;;;;;1.38;0.80;;;11.60;99.90;;;;;;5054576;28;20385;-72
2023/10/23 12:17:34;;;;;;;1.33;0.90;;;11.70;99.90;;;;;;5054422;28;20049;-74
2023/10/23 12:20:00;;;;;;;2.13;2.00;;;11.70;99.90;;;;;;5055056;28;20485;-71
2023/10/23 12:22:26;;;;;;;3.58;1.05;;;11.70;99.90;;;;;;5054488;28;20041;-76
2023/10/23 12:24:51;;;;;;;1.20;1.10;;;11.70;99.90;;;;;;5054834;28;20040;-74
2023/10/23 12:27:17;;;;;;;1.08;1.00;;;11.70;99.90;;;;;;5053504;28;20079;-74
2023/10/23 12:29:42;;;;;;;0.75;0.75;;;11.70;99.90;;;;;;5054247;28;20041;-71
2023/10/23 12:32:08;;;;;;;0.70;0.70;;;11.70;99.90;;;;;;5054540;28;20422;-73
2023/10/23 12:34:35;;;;;;;1.20;1.10;;;12.00;99.90;;;;;;5054666;28;20063;-72
2023/10/23 12:37:01;;;;;;;1.20;1.10;;;11.70;99.90;;;;;;5054025;28;20465;-72
2023/10/23 12:39:27;;;;;;;0.80;0.80;;;11.70;99.90;;;;;;5054145;28;20041;-74
2023/10/23 12:41:52;;;;;;;2.85;1.05;;;11.80;99.90;;;;;;5054049;28;20037;-73
2023/10/23 12:44:18;;;;;;;0.40;0.40;;;11.80;99.90;;;;;;5054039;28;20067;-76
2023/10/23 12:46:46;;;;;;;0.60;0.60;;;11.90;99.90;;;;;;5054749;28;20472;-77
2023/10/23 12:49:12;;;;;;;0.50;0.50;;;11.90;99.90;;;;;;5056028;28;20037;-76
2023/10/23 12:51:37;;;;;;;0.90;0.90;;;12.10;99.90;;;;;;5054013;28;20203;-75
2023/10/23 12:54:03;;;;;;;1.30;1.20;;;12.00;99.90;;;;;;5053829;28;20079;-77